Time;durP1;ratioP1;P1;durP2;ratioP2;P2;SDS_P1;SDS_P2;PMS_P1;PMS_P2;Temp;Humidity;BMP_temperature;BMP_pressure;BME280_temperature;BME280_humidity;BME280_pressure;Samples;Min_cycle;Max_cycle;Signal;HPM_P1;HPM_P2
2024/03/08 00:00:12;;;;;;;;;;;22.50;41.30;;;;;;5057028;28;19924;-63
2024/03/08 00:02:41;;;;;;;;;;;22.60;41.30;;;;;;5056095;28;19972;-62
2024/03/08 00:05:08;;;;;;;;;;;22.60;41.20;;;;;;5056785;28;19964;-63
2024/03/08 00:07:36;;;;;;;;;;;22.60;41.20;;;;;;5056396;28;20294;-62
2024/03/08 00:10:03;;;;;;;;;;;22.60;41.10;;;;;;5055801;28;20374;-63
2024/03/08 00:12:30;;;;;;;;;;;22.60;41.20;;;;;;5056380;28;19925;-62
2024/03/08 00:14:57;;;;;;;;;;;22.60;41.20;;;;;;5056328;28;19932;-62
2024/03/08 00:17:25;;;;;;;;;;;22.60;41.10;;;;;;5055932;28;19925;-62
2024/03/08 00:19:52;;;;;;;;;;;22.60;41.10;;;;;;5056733;28;19972;-62
2024/03/08 00:22:19;;;;;;;;;;;22.60;41.10;;;;;;5055778;28;19924;-63
2024/03/08 00:24:46;;;;;;;;;;;22.60;41.10;;;;;;5055894;28;19978;-62
2024/03/08 00:27:13;;;;;;;;;;;22.60;41.60;;;;;;5055587;28;19978;-63
2024/03/08 00:29:40;;;;;;;;;;;22.50;41.10;;;;;;5056086;28;19975;-63
2024/03/08 00:32:10;;;;;;;;;;;22.60;41.10;;;;;;5056238;28;19952;-63
2024/03/08 00:34:37;;;;;;;;;;;22.60;41.10;;;;;;5054690;28;19972;-62
2024/03/08 00:37:04;;;;;;;;;;;22.50;41.10;;;;;;5055965;28;19925;-62
2024/03/08 00:39:31;;;;;;;;;;;22.50;41.10;;;;;;5056272;28;20027;-62
2024/03/08 00:41:58;;;;;;;;;;;22.50;41.10;;;;;;5055101;28;19933;-62
2024/03/08 00:44:26;;;;;;;;;;;22.60;41.20;;;;;;5055676;28;20374;-62
2024/03/08 00:46:53;;;;;;;;;;;22.50;41.10;;;;;;5055257;28;20440;-62
2024/03/08 00:49:22;;;;;;;;;;;22.50;41.10;;;;;;5056147;28;20034;-63
2024/03/08 00:51:49;;;;;;;;;;;22.50;41.10;;;;;;5056098;28;19932;-62
2024/03/08 00:54:16;;;;;;;;;;;22.50;41.20;;;;;;5055333;28;19928;-63
2024/03/08 00:56:43;;;;;;;;;;;22.50;41.10;;;;;;5055107;28;20394;-63
2024/03/08 00:59:10;;;;;;;;;;;22.50;41.20;;;;;;5054739;28;19947;-64
2024/03/08 01:01:37;;;;;;;;;;;22.50;41.20;;;;;;5055764;28;19929;-63
2024/03/08 01:04:04;;;;;;;;;;;22.50;41.20;;;;;;5055504;28;20016;-63
2024/03/08 01:06:31;;;;;;;;;;;22.50;41.20;;;;;;5055133;28;19980;-62
2024/03/08 01:08:58;;;;;;;;;;;22.50;41.20;;;;;;5055717;28;20289;-62
2024/03/08 01:11:25;;;;;;;;;;;22.50;41.20;;;;;;5055158;28;19932;-63
2024/03/08 01:13:53;;;;;;;;;;;22.50;41.10;;;;;;5055376;28;20355;-62
2024/03/08 01:16:21;;;;;;;;;;;22.50;41.10;;;;;;5054433;28;19979;-62
2024/03/08 01:18:48;;;;;;;;;;;22.50;41.10;;;;;;5054882;28;19955;-62
2024/03/08 01:21:15;;;;;;;;;;;22.50;41.00;;;;;;5055083;28;20437;-63
2024/03/08 01:23:42;;;;;;;;;;;22.50;41.00;;;;;;5054680;28;19928;-62
2024/03/08 01:26:09;;;;;;;;;;;22.50;41.00;;;;;;5055070;28;19925;-62
2024/03/08 01:28:36;;;;;;;;;;;22.50;41.00;;;;;;5054703;28;19964;-62
2024/03/08 01:31:03;;;;;;;;;;;22.50;41.10;;;;;;5055232;28;19975;-62
2024/03/08 01:33:31;;;;;;;;;;;22.50;41.00;;;;;;5054196;28;20011;-63
2024/03/08 01:35:58;;;;;;;;;;;22.50;41.00;;;;;;5054716;28;19925;-62
2024/03/08 01:38:25;;;;;;;;;;;22.50;41.00;;;;;;5054896;28;19925;-62
2024/03/08 01:40:52;;;;;;;;;;;22.50;41.10;;;;;;5054993;28;19932;-62
2024/03/08 01:43:24;;;;;;;;;;;22.40;41.00;;;;;;5054371;28;19968;-63
2024/03/08 01:45:51;;;;;;;;;;;22.50;41.10;;;;;;5054445;28;19968;-62
2024/03/08 01:48:18;;;;;;;;;;;22.40;41.00;;;;;;5054120;28;19924;-63
2024/03/08 01:50:46;;;;;;;;;;;22.40;41.10;;;;;;5054503;28;19932;-62
2024/03/08 01:53:15;;;;;;;;;;;22.40;41.10;;;;;;5054338;28;19924;-62
2024/03/08 01:55:42;;;;;;;;;;;22.40;41.10;;;;;;5054601;28;19925;-62
2024/03/08 01:58:09;;;;;;;;;;;22.40;41.10;;;;;;5054162;28;20275;-62
2024/03/08 02:00:38;;;;;;;;;;;22.40;41.10;;;;;;5054212;28;19963;-63
2024/03/08 02:03:05;;;;;;;;;;;22.40;41.10;;;;;;5054478;28;20358;-62
2024/03/08 02:05:32;;;;;;;;;;;22.40;41.10;;;;;;5053703;28;19929;-62
2024/03/08 02:07:59;;;;;;;;;;;22.40;41.10;;;;;;5054486;28;20382;-62
2024/03/08 02:10:26;;;;;;;;;;;22.40;41.10;;;;;;5053294;28;19931;-63
2024/03/08 02:12:53;;;;;;;;;;;22.40;41.10;;;;;;5053856;28;19974;-62
2024/03/08 02:15:21;;;;;;;;;;;22.40;41.10;;;;;;5053201;28;19931;-62
2024/03/08 02:17:48;;;;;;;;;;;22.40;41.10;;;;;;5053819;28;20334;-62
2024/03/08 02:20:16;;;;;;;;;;;22.40;41.10;;;;;;5053978;28;19932;-62
2024/03/08 02:22:43;;;;;;;;;;;22.40;41.10;;;;;;5053008;28;19925;-62
2024/03/08 02:25:10;;;;;;;;;;;22.40;41.10;;;;;;5053905;28;19978;-63
2024/03/08 02:27:37;;;;;;;;;;;22.40;41.00;;;;;;5053771;28;19948;-63
2024/03/08 02:30:05;;;;;;;;;;;22.40;41.00;;;;;;5053805;28;20458;-63
2024/03/08 02:32:32;;;;;;;;;;;22.40;41.00;;;;;;5053847;28;19925;-63
2024/03/08 02:34:59;;;;;;;;;;;22.40;41.00;;;;;;5054002;28;20011;-63
2024/03/08 02:37:28;;;;;;;;;;;22.40;41.00;;;;;;5052733;28;19928;-63
2024/03/08 02:39:55;;;;;;;;;;;22.40;41.00;;;;;;5053763;28;20023;-62
2024/03/08 02:42:22;;;;;;;;;;;22.40;41.00;;;;;;5053451;28;19967;-62
2024/03/08 02:44:49;;;;;;;;;;;22.40;41.00;;;;;;5053373;28;19943;-62
2024/03/08 02:47:16;;;;;;;;;;;22.40;40.90;;;;;;5053307;28;19971;-62
2024/03/08 02:49:43;;;;;;;;;;;22.40;40.90;;;;;;5053820;28;19925;-63
2024/03/08 02:52:11;;;;;;;;;;;22.50;40.90;;;;;;5053481;28;19947;-62
2024/03/08 02:54:38;;;;;;;;;;;22.50;40.90;;;;;;5052880;28;20337;-63
2024/03/08 02:57:07;;;;;;;;;;;22.40;40.80;;;;;;5053522;28;19928;-63
2024/03/08 02:59:34;;;;;;;;;;;22.40;40.90;;;;;;5053227;28;19925;-63
2024/03/08 03:02:01;;;;;;;;;;;22.40;40.90;;;;;;5053251;28;19924;-62
2024/03/08 03:04:28;;;;;;;;;;;22.40;40.90;;;;;;5053225;28;19925;-62
2024/03/08 03:06:55;;;;;;;;;;;22.40;40.90;;;;;;5053430;28;20016;-62
2024/03/08 03:09:27;;;;;;;;;;;22.40;40.90;;;;;;5053186;28;19931;-62
2024/03/08 03:11:54;;;;;;;;;;;22.40;40.90;;;;;;5052642;28;19978;-62
2024/03/08 03:14:26;;;;;;;;;;;22.40;40.90;;;;;;5053019;28;20023;-62
2024/03/08 03:16:54;;;;;;;;;;;22.40;40.90;;;;;;5052926;28;19929;-63
2024/03/08 03:19:21;;;;;;;;;;;22.40;40.90;;;;;;5052887;28;20026;-63
2024/03/08 03:21:47;;;;;;;;;;;22.40;41.00;;;;;;5052820;28;19964;-63
2024/03/08 03:24:16;;;;;;;;;;;22.40;41.00;;;;;;5052944;28;20328;-63
2024/03/08 03:26:43;;;;;;;;;;;22.40;41.00;;;;;;5052489;28;19928;-63
2024/03/08 03:29:11;;;;;;;;;;;22.40;41.00;;;;;;5053257;28;20023;-63
2024/03/08 03:31:37;;;;;;;;;;;22.40;41.00;;;;;;5053275;28;19925;-63
2024/03/08 03:34:08;;;;;;;;;;;22.40;41.00;;;;;;5053087;28;20003;-63
2024/03/08 03:36:37;;;;;;;;;;;22.40;41.00;;;;;;5052681;28;20378;-63
2024/03/08 03:39:12;;;;;;;;;;;22.40;40.90;;;;;;5052775;28;20451;-63
2024/03/08 03:41:40;;;;;;;;;;;22.40;40.90;;;;;;5052717;28;19982;-63
2024/03/08 03:44:07;;;;;;;;;;;22.40;40.90;;;;;;5052254;28;19979;-63
2024/03/08 03:46:33;;;;;;;;;;;22.40;40.90;;;;;;5052583;28;20012;-63
2024/03/08 03:49:01;;;;;;;;;;;22.40;40.80;;;;;;5052626;28;19924;-63
2024/03/08 03:51:29;;;;;;;;;;;22.40;40.80;;;;;;5053256;28;19925;-63
2024/03/08 03:53:57;;;;;;;;;;;22.40;40.80;;;;;;5052887;28;20019;-63
2024/03/08 03:56:27;;;;;;;;;;;22.40;40.80;;;;;;5052750;28;20394;-63
2024/03/08 03:58:54;;;;;;;;;;;22.40;40.70;;;;;;5052686;28;19984;-63
2024/03/08 04:01:21;;;;;;;;;;;22.40;40.80;;;;;;5052077;28;19925;-62
2024/03/08 04:03:48;;;;;;;;;;;22.40;40.80;;;;;;5052741;28;19925;-62
2024/03/08 04:06:15;;;;;;;;;;;22.40;40.80;;;;;;5052536;28;20339;-63
2024/03/08 04:08:42;;;;;;;;;;;22.40;40.80;;;;;;5052362;28;19929;-63
2024/03/08 04:11:09;;;;;;;;;;;22.30;40.80;;;;;;5052784;28;20381;-63
2024/03/08 04:13:36;;;;;;;;;;;22.40;40.80;;;;;;5052394;28;19972;-63
2024/03/08 04:16:07;;;;;;;;;;;22.40;40.80;;;;;;5051993;28;19924;-63
2024/03/08 04:18:38;;;;;;;;;;;22.40;40.90;;;;;;5052380;28;19931;-63
2024/03/08 04:21:08;;;;;;;;;;;22.30;40.80;;;;;;5052528;28;19972;-63
2024/03/08 04:23:35;;;;;;;;;;;22.30;40.80;;;;;;5052190;28;20031;-63
2024/03/08 04:26:04;;;;;;;;;;;22.30;40.90;;;;;;5052481;28;19925;-62
2024/03/08 04:28:31;;;;;;;;;;;22.30;40.90;;;;;;5052024;28;19925;-63
2024/03/08 04:31:00;;;;;;;;;;;22.30;40.90;;;;;;5052683;28;19932;-63
2024/03/08 04:33:28;;;;;;;;;;;22.30;40.90;;;;;;5054019;28;20016;-63
2024/03/08 04:35:55;;;;;;;;;;;22.30;40.90;;;;;;5055639;28;20321;-63
2024/03/08 04:38:22;;;;;;;;;;;22.30;40.90;;;;;;5054151;28;19935;-62
2024/03/08 04:40:49;;;;;;;;;;;22.40;40.40;;;;;;5055943;28;19928;-63
2024/03/08 04:43:18;;;;;;;;;;;22.30;40.10;;;;;;5055341;28;19929;-63
2024/03/08 04:45:45;;;;;;;;;;;22.40;40.00;;;;;;5055745;28;20194;-64
2024/03/08 04:48:12;;;;;;;;;;;22.40;39.80;;;;;;5056075;28;19925;-63
2024/03/08 04:50:39;;;;;;;;;;;22.40;39.70;;;;;;5060164;28;19982;-63
2024/03/08 04:53:07;;;;;;;;;;;22.40;39.50;;;;;;5055595;28;19925;-63
2024/03/08 04:55:35;;;;;;;;;;;22.40;39.50;;;;;;5055071;28;20279;-63
2024/03/08 04:58:03;;;;;;;;;;;22.40;39.50;;;;;;5055363;28;20011;-63
2024/03/08 05:00:30;;;;;;;;;;;22.40;39.40;;;;;;5055492;28;19925;-63
2024/03/08 05:02:58;;;;;;;;;;;22.40;39.20;;;;;;5055666;28;19925;-63
2024/03/08 05:05:26;;;;;;;;;;;22.50;39.10;;;;;;5055101;28;19935;-63
2024/03/08 05:07:53;;;;;;;;;;;22.40;38.90;;;;;;5055540;28;19931;-63
2024/03/08 05:10:20;;;;;;;;;;;22.50;38.80;;;;;;5054983;28;20457;-63
2024/03/08 05:12:47;;;;;;;;;;;22.50;38.80;;;;;;5055243;28;19928;-63
2024/03/08 05:15:14;;;;;;;;;;;22.50;38.60;;;;;;5055161;28;19924;-63
2024/03/08 05:17:41;;;;;;;;;;;22.40;38.50;;;;;;5054826;28;19970;-63
2024/03/08 05:20:12;;;;;;;;;;;22.50;38.40;;;;;;5055223;28;19931;-63
2024/03/08 05:22:40;;;;;;;;;;;22.50;38.40;;;;;;5054172;28;20031;-63
2024/03/08 05:25:10;;;;;;;;;;;22.50;38.30;;;;;;5054801;28;20446;-63
2024/03/08 05:27:37;;;;;;;;;;;22.50;38.20;;;;;;5055225;28;19933;-63
2024/03/08 05:30:04;;;;;;;;;;;22.50;38.10;;;;;;5055368;28;19924;-63
2024/03/08 05:32:31;;;;;;;;;;;22.50;38.20;;;;;;5054827;28;20413;-63
2024/03/08 05:34:58;;;;;;;;;;;22.50;38.10;;;;;;5054992;28;19932;-63
2024/03/08 05:37:26;;;;;;;;;;;22.50;38.00;;;;;;5054447;28;19979;-63
2024/03/08 05:39:54;;;;;;;;;;;22.50;38.00;;;;;;5054334;28;20004;-63
2024/03/08 05:42:21;;;;;;;;;;;22.50;38.00;;;;;;5054002;28;19947;-63
2024/03/08 05:44:49;;;;;;;;;;;22.50;37.90;;;;;;5054459;28;19932;-63
2024/03/08 05:47:16;;;;;;;;;;;22.50;37.90;;;;;;5033621;28;20044;-62
2024/03/08 05:49:44;;;;;;;;;;;22.50;37.90;;;;;;5052682;28;19929;-63
2024/03/08 05:52:11;;;;;;;;;;;22.50;37.80;;;;;;5050810;28;20284;-64
2024/03/08 05:54:38;;;;;;;;;;;22.50;37.80;;;;;;5050994;28;19929;-64
2024/03/08 05:57:06;;;;;;;;;;;22.50;37.80;;;;;;5053283;28;19925;-64
2024/03/08 05:59:33;;;;;;;;;;;22.50;37.70;;;;;;5054117;28;20274;-64
2024/03/08 06:02:00;;;;;;;;;;;22.50;37.60;;;;;;5053516;28;19925;-64
2024/03/08 06:04:27;;;;;;;;;;;22.60;37.60;;;;;;5053348;28;20484;-65
2024/03/08 06:06:56;;;;;;;;;;;22.60;37.50;;;;;;5053101;28;20361;-62
2024/03/08 06:09:24;;;;;;;;;;;22.60;37.40;;;;;;5053357;28;19925;-63
2024/03/08 06:11:53;;;;;;;;;;;22.60;37.30;;;;;;5052682;28;20023;-63
2024/03/08 06:14:21;;;;;;;;;;;22.60;37.20;;;;;;5055934;28;20286;-64
2024/03/08 06:16:50;;;;;;;;;;;22.70;37.30;;;;;;5048525;28;19924;-66
2024/03/08 06:19:17;;;;;;;;;;;22.60;37.30;;;;;;5038937;28;20378;-67
2024/03/08 06:21:44;;;;;;;;;;;22.70;37.40;;;;;;5053274;28;19924;-64
2024/03/08 06:24:11;;;;;;;;;;;22.70;37.40;;;;;;5051391;28;20475;-67
2024/03/08 06:26:38;;;;;;;;;;;22.70;37.40;;;;;;5048730;28;19929;-67
2024/03/08 06:29:06;;;;;;;;;;;22.70;37.40;;;;;;5047075;28;20008;-67
2024/03/08 06:31:34;;;;;;;;;;;22.70;37.50;;;;;;5056327;28;19925;-66
2024/03/08 06:34:01;;;;;;;;;;;22.80;37.50;;;;;;5048213;28;20409;-64
2024/03/08 06:36:28;;;;;;;;;;;22.80;37.50;;;;;;5046247;28;19983;-68
2024/03/08 06:38:57;;;;;;;;;;;22.80;37.60;;;;;;5044557;28;20032;-69
2024/03/08 06:41:24;;;;;;;;;;;22.80;37.40;;;;;;5043794;28;19932;-67
2024/03/08 06:43:57;;;;;;;;;;;22.80;37.30;;;;;;5043029;28;19932;-68
2024/03/08 06:46:24;;;;;;;;;;;22.80;37.40;;;;;;5042160;28;20011;-68
2024/03/08 06:48:51;;;;;;;;;;;22.80;37.50;;;;;;5040513;28;19939;-67
2024/03/08 06:51:19;;;;;;;;;;;22.90;37.50;;;;;;5040181;28;19933;-63
2024/03/08 06:53:46;;;;;;;;;;;22.90;37.60;;;;;;5042330;28;19928;-66
2024/03/08 06:56:13;;;;;;;;;;;23.00;37.80;;;;;;5039074;28;20386;-65
2024/03/08 06:58:40;;;;;;;;;;;23.00;37.90;;;;;;5039257;28;19935;-65
2024/03/08 07:01:07;;;;;;;;;;;23.10;38.00;;;;;;5022929;28;20306;-67
2024/03/08 07:03:35;;;;;;;;;;;23.10;37.90;;;;;;5039391;28;19929;-66
2024/03/08 07:06:02;;;;;;;;;;;23.20;38.10;;;;;;5036770;28;19984;-65
2024/03/08 07:08:30;;;;;;;;;;;23.30;38.20;;;;;;5034075;28;19944;-66
2024/03/08 07:10:58;;;;;;;;;;;23.30;38.30;;;;;;5040404;28;19944;-64
2024/03/08 07:13:28;;;;;;;;;;;23.40;38.40;;;;;;5034899;28;19931;-67
2024/03/08 07:15:55;;;;;;;;;;;23.40;38.40;;;;;;5043616;28;19932;-67
2024/03/08 07:18:22;;;;;;;;;;;23.40;38.40;;;;;;5041842;28;20023;-65
2024/03/08 07:20:49;;;;;;;;;;;23.50;38.40;;;;;;5038705;28;19986;-65
2024/03/08 07:23:46;;;;;;;;;;;23.60;38.40;;;;;;5038603;28;19932;-70
2024/03/08 07:26:04;;;;;;;;;;;23.60;38.20;;;;;;5041106;28;19933;-68
2024/03/08 07:28:31;;;;;;;;;;;23.60;37.90;;;;;;5038643;28;19931;-68
2024/03/08 07:31:17;;;;;;;;;;;23.60;37.90;;;;;;5045517;28;19931;-68
2024/03/08 07:33:44;;;;;;;;;;;23.60;38.50;;;;;;5045158;28;19925;-67
2024/03/08 07:36:11;;;;;;;;;;;23.70;38.00;;;;;;5045050;28;20023;-66
2024/03/08 07:38:38;;;;;;;;;;;23.70;37.80;;;;;;5045725;28;20023;-67
2024/03/08 07:41:05;;;;;;;;;;;23.70;37.80;;;;;;5026867;28;19925;-68
2024/03/08 07:43:32;;;;;;;;;;;23.80;37.70;;;;;;5042737;28;19933;-71
2024/03/08 07:46:00;;;;;;;;;;;23.80;37.70;;;;;;5044805;28;20357;-69
2024/03/08 07:48:27;;;;;;;;;;;23.90;37.60;;;;;;5035380;28;19928;-68
2024/03/08 07:50:54;;;;;;;;;;;23.90;37.50;;;;;;5042183;28;19943;-70
2024/03/08 07:53:21;;;;;;;;;;;23.90;38.00;;;;;;5042196;28;20448;-67
2024/03/08 07:55:48;;;;;;;;;;;24.00;37.40;;;;;;5042842;28;19964;-67
2024/03/08 07:58:16;;;;;;;;;;;24.00;37.30;;;;;;5045256;28;19976;-68
2024/03/08 08:00:44;;;;;;;;;;;24.10;37.10;;;;;;5040574;28;19932;-68
2024/03/08 08:03:12;;;;;;;;;;;24.10;36.90;;;;;;5036889;28;19935;-67
2024/03/08 08:05:39;;;;;;;;;;;24.10;36.60;;;;;;5040264;28;19983;-66
2024/03/08 08:08:07;;;;;;;;;;;24.10;36.50;;;;;;5043097;28;19935;-68
2024/03/08 08:10:34;;;;;;;;;;;24.10;36.30;;;;;;5045603;28;20401;-69
2024/03/08 08:13:04;;;;;;;;;;;24.20;36.20;;;;;;5046425;28;19929;-68
2024/03/08 08:15:34;;;;;;;;;;;24.20;36.00;;;;;;5043640;28;20016;-68
2024/03/08 08:18:02;;;;;;;;;;;24.20;35.80;;;;;;5049315;28;20366;-68
2024/03/08 08:20:29;;;;;;;;;;;24.20;35.60;;;;;;5046654;28;21129;-67
2024/03/08 08:22:56;;;;;;;;;;;24.30;35.50;;;;;;5047206;28;19986;-67
2024/03/08 08:25:24;;;;;;;;;;;24.30;35.60;;;;;;5043054;28;19928;-66
2024/03/08 08:27:53;;;;;;;;;;;24.30;35.60;;;;;;5047593;28;19933;-66
2024/03/08 08:30:20;;;;;;;;;;;24.30;35.80;;;;;;5044929;28;19925;-64
2024/03/08 08:32:48;;;;;;;;;;;24.30;35.60;;;;;;5045689;28;19956;-65
2024/03/08 08:35:16;;;;;;;;;;;24.40;35.40;;;;;;5044747;28;19925;-63
2024/03/08 08:37:44;;;;;;;;;;;24.40;35.10;;;;;;5043524;28;19924;-64
2024/03/08 08:40:14;;;;;;;;;;;24.40;34.90;;;;;;5044697;28;20023;-65
2024/03/08 08:42:42;;;;;;;;;;;24.50;34.90;;;;;;5044642;28;20393;-63
2024/03/08 08:45:10;;;;;;;;;;;24.50;34.10;;;;;;5045393;28;20049;-63
2024/03/08 08:47:46;;;;;;;;;;;24.50;34.20;;;;;;5043699;28;19929;-64
2024/03/08 08:50:14;;;;;;;;;;;24.50;33.90;;;;;;5045203;28;19935;-64
2024/03/08 08:52:43;;;;;;;;;;;24.50;34.30;;;;;;5043123;28;19960;-64
2024/03/08 08:55:14;;;;;;;;;;;24.50;34.30;;;;;;5041867;28;19956;-64
2024/03/08 08:57:42;;;;;;;;;;;24.60;33.90;;;;;;5046313;28;19924;-63
2024/03/08 09:00:14;;;;;;;;;;;24.60;33.80;;;;;;5030966;28;19929;-63
2024/03/08 09:02:41;;;;;;;;;;;24.60;34.20;;;;;;5044133;28;19933;-64
2024/03/08 09:05:08;;;;;;;;;;;24.60;34.00;;;;;;5043874;28;20055;-65
2024/03/08 09:07:35;;;;;;;;;;;24.60;33.70;;;;;;5046734;28;19955;-65
2024/03/08 09:10:03;;;;;;;;;;;24.60;33.80;;;;;;5049652;28;20117;-62
2024/03/08 09:12:44;;;;;;;;;;;24.70;33.80;;;;;;5048676;28;19951;-62
2024/03/08 09:15:11;;;;;;;;;;;24.70;33.60;;;;;;5046772;28;19933;-62
2024/03/08 09:17:44;;;;;;;;;;;24.70;33.20;;;;;;5047463;28;20012;-62
2024/03/08 09:20:14;;;;;;;;;;;24.70;33.50;;;;;;5050764;28;19929;-62
2024/03/08 09:22:45;;;;;;;;;;;24.80;33.70;;;;;;5047705;28;20015;-63
2024/03/08 09:25:13;;;;;;;;;;;24.80;32.50;;;;;;5047231;28;20255;-63
2024/03/08 09:27:40;;;;;;;;;;;24.80;33.20;;;;;;5043915;28;19925;-63
2024/03/08 09:30:08;;;;;;;;;;;24.80;33.50;;;;;;5047544;28;20374;-61
2024/03/08 09:32:36;;;;;;;;;;;24.80;33.60;;;;;;5048314;28;19933;-63
2024/03/08 09:35:06;;;;;;;;;;;24.90;33.50;;;;;;5047584;28;19933;-62
2024/03/08 09:37:34;;;;;;;;;;;24.90;33.60;;;;;;5051104;28;19924;-64
2024/03/08 09:40:04;;;;;;;;;;;24.90;33.50;;;;;;5046438;28;19924;-62
2024/03/08 09:42:31;;;;;;;;;;;24.90;33.40;;;;;;5048981;28;19929;-63
2024/03/08 09:44:58;;;;;;;;;;;24.90;33.30;;;;;;5044771;28;19925;-61
2024/03/08 09:47:33;;;;;;;;;;;24.90;33.40;;;;;;5048866;28;19936;-62
2024/03/08 09:50:01;;;;;;;;;;;24.90;33.40;;;;;;5037974;28;19929;-66
2024/03/08 09:52:30;;;;;;;;;;;24.90;33.40;;;;;;5041130;28;19925;-63
2024/03/08 09:54:57;;;;;;;;;;;24.90;33.50;;;;;;5044049;28;19932;-63
2024/03/08 09:57:25;;;;;;;;;;;24.90;33.60;;;;;;5047457;28;20425;-62
2024/03/08 09:59:52;;;;;;;;;;;24.90;33.80;;;;;;5045639;28;19990;-64
2024/03/08 10:02:20;;;;;;;;;;;25.00;33.70;;;;;;5027386;28;20044;-64
2024/03/08 10:04:48;;;;;;;;;;;25.00;33.40;;;;;;5044475;28;20547;-63
2024/03/08 10:07:15;;;;;;;;;;;25.00;33.20;;;;;;5039871;28;19932;-63
2024/03/08 10:09:49;;;;;;;;;;;25.10;33.20;;;;;;5046328;28;19925;-64
2024/03/08 10:12:17;;;;;;;;;;;25.10;32.70;;;;;;5046045;28;19929;-63
2024/03/08 10:14:45;;;;;;;;;;;25.10;33.10;;;;;;5044613;28;19931;-63
2024/03/08 10:17:12;;;;;;;;;;;25.10;33.10;;;;;;5044020;28;19931;-63
2024/03/08 10:19:49;;;;;;;;;;;25.20;33.10;;;;;;5040080;28;19982;-65
2024/03/08 10:22:18;;;;;;;;;;;25.20;33.00;;;;;;5025952;28;19932;-62
2024/03/08 10:24:46;;;;;;;;;;;25.30;32.90;;;;;;5047126;28;19925;-64
2024/03/08 10:27:15;;;;;;;;;;;25.30;32.80;;;;;;5041583;28;19935;-63
2024/03/08 10:29:44;;;;;;;;;;;25.40;32.70;;;;;;5043689;28;19979;-63
2024/03/08 10:32:11;;;;;;;;;;;25.40;32.70;;;;;;5045659;28;19974;-65
2024/03/08 10:34:38;;;;;;;;;;;25.40;32.70;;;;;;5047055;28;19971;-61
2024/03/08 10:37:07;;;;;;;;;;;25.50;32.70;;;;;;5046416;28;19969;-61
2024/03/08 10:39:35;;;;;;;;;;;25.50;32.60;;;;;;5045232;28;19979;-63
2024/03/08 10:42:03;;;;;;;;;;;25.60;32.70;;;;;;5045484;28;19929;-63
2024/03/08 10:44:40;;;;;;;;;;;25.60;32.70;;;;;;5044682;28;19924;-66
2024/03/08 10:47:17;;;;;;;;;;;25.70;32.60;;;;;;5043909;28;19991;-63
2024/03/08 10:49:54;;;;;;;;;;;25.60;32.50;;;;;;5044790;28;19925;-64
2024/03/08 10:52:22;;;;;;;;;;;25.70;32.30;;;;;;5045905;28;19925;-63
2024/03/08 10:54:50;;;;;;;;;;;25.70;32.10;;;;;;5041636;28;19939;-64
2024/03/08 10:57:18;;;;;;;;;;;25.70;32.10;;;;;;5045655;28;19933;-64
2024/03/08 10:59:45;;;;;;;;;;;25.70;32.20;;;;;;5042986;28;19933;-63
2024/03/08 11:02:12;;;;;;;;;;;25.70;32.20;;;;;;5049192;28;19948;-65
2024/03/08 11:04:45;;;;;;;;;;;25.80;32.20;;;;;;5044205;28;19932;-65
2024/03/08 11:07:17;;;;;;;;;;;25.80;32.20;;;;;;5048795;28;19986;-65
2024/03/08 11:09:45;;;;;;;;;;;25.80;32.30;;;;;;5049346;28;19924;-62
2024/03/08 11:12:25;;;;;;;;;;;25.80;32.30;;;;;;5039265;28;19925;-62
2024/03/08 11:14:53;;;;;;;;;;;25.90;32.50;;;;;;5038738;28;19932;-63
2024/03/08 11:17:39;;;;;;;;;;;25.90;32.60;;;;;;5037338;28;19935;-63
2024/03/08 11:20:15;;;;;;;;;;;25.90;32.60;;;;;;5040594;28;19979;-62
2024/03/08 12:40:08;;;;;;;;;;;25.80;32.50;;;;;;5043643;28;19923;-67
2024/03/08 12:42:35;;;;;;;;;;;25.80;32.30;;;;;;5055222;28;20011;-64
2024/03/08 12:45:02;;;;;;;;;;;25.80;32.30;;;;;;5055980;28;19925;-64
2024/03/08 12:47:30;;;;;;;;;;;25.80;32.30;;;;;;5055596;28;19967;-65
2024/03/08 12:49:57;;;;;;;;;;;25.80;32.20;;;;;;5056073;28;20275;-63
2024/03/08 12:52:24;;;;;;;;;;;25.80;32.20;;;;;;5055488;28;19925;-63
2024/03/08 12:54:51;;;;;;;;;;;25.80;32.00;;;;;;5054400;28;20015;-63
2024/03/08 12:57:18;;;;;;;;;;;25.90;32.10;;;;;;5054802;28;20378;-64
2024/03/08 12:59:45;;;;;;;;;;;25.90;32.00;;;;;;5054979;28;20378;-64
2024/03/08 13:02:12;;;;;;;;;;;25.90;31.80;;;;;;5054885;28;19971;-64
2024/03/08 13:04:39;;;;;;;;;;;26.00;31.80;;;;;;5055653;28;20015;-63
2024/03/08 13:07:06;;;;;;;;;;;25.90;31.90;;;;;;5052703;28;20412;-63
2024/03/08 13:09:37;;;;;;;;;;;25.90;32.10;;;;;;5054225;28;19935;-65
2024/03/08 13:12:05;;;;;;;;;;;25.90;32.30;;;;;;5055499;28;19932;-66
2024/03/08 13:14:33;;;;;;;;;;;25.90;32.40;;;;;;5055703;28;20011;-63
2024/03/08 13:16:59;;;;;;;;;;;25.90;32.60;;;;;;5055277;28;19931;-62
2024/03/08 13:19:28;;;;;;;;;;;25.90;32.80;;;;;;5054466;28;19924;-63
2024/03/08 13:21:56;;;;;;;;;;;25.90;32.80;;;;;;5054933;28;19978;-63
2024/03/08 13:24:23;;;;;;;;;;;25.90;33.00;;;;;;5055201;28;20371;-63
2024/03/08 13:26:51;;;;;;;;;;;25.90;33.10;;;;;;5055316;28;19932;-63
2024/03/08 13:29:18;;;;;;;;;;;25.90;33.20;;;;;;5055340;28;19972;-63
2024/03/08 13:31:46;;;;;;;;;;;25.90;33.40;;;;;;5055349;28;19932;-63
2024/03/08 13:34:15;;;;;;;;;;;25.80;33.90;;;;;;5054982;28;20393;-63
2024/03/08 13:36:43;;;;;;;;;;;25.80;33.40;;;;;;5054895;28;19925;-63
2024/03/08 13:39:20;;;;;;;;;;;25.80;33.60;;;;;;5054982;28;19932;-64
2024/03/08 13:41:48;;;;;;;;;;;25.80;34.10;;;;;;5054806;28;20019;-63
2024/03/08 13:44:17;;;;;;;;;;;25.80;34.40;;;;;;5054755;28;20449;-63
2024/03/08 13:46:46;;;;;;;;;;;25.80;34.40;;;;;;5054094;28;19924;-63
2024/03/08 13:49:15;;;;;;;;;;;25.70;34.30;;;;;;5054725;28;20010;-63
2024/03/08 13:51:42;;;;;;;;;;;25.70;34.10;;;;;;5054563;28;20401;-62
2024/03/08 13:54:09;;;;;;;;;;;25.70;33.70;;;;;;5054705;28;20463;-61
2024/03/08 13:56:37;;;;;;;;;;;25.70;33.60;;;;;;5054386;28;19931;-62
2024/03/08 13:59:03;;;;;;;;;;;25.70;33.70;;;;;;5054329;28;19978;-63
2024/03/08 14:01:30;;;;;;;;;;;25.70;33.60;;;;;;5054377;28;20481;-63
2024/03/08 14:03:57;;;;;;;;;;;25.60;33.40;;;;;;5054546;28;19929;-63
2024/03/08 14:06:25;;;;;;;;;;;25.60;33.30;;;;;;5036724;28;19925;-63
2024/03/08 14:08:57;;;;;;;;;;;25.60;33.20;;;;;;5069250;28;20293;-62
2024/03/08 14:11:24;;;;;;;;;;;25.60;33.00;;;;;;5053853;28;20374;-61
2024/03/08 14:13:52;;;;;;;;;;;25.60;33.00;;;;;;5054135;28;19928;-61
2024/03/08 14:16:19;;;;;;;;;;;25.60;33.10;;;;;;5054447;28;19964;-62
2024/03/08 14:18:46;;;;;;;;;;;25.60;33.10;;;;;;5054288;28;19972;-61
2024/03/08 14:21:13;;;;;;;;;;;25.60;33.20;;;;;;5053850;28;20011;-61
2024/03/08 14:23:41;;;;;;;;;;;25.60;33.60;;;;;;5054441;28;19924;-61
2024/03/08 14:26:09;;;;;;;;;;;25.60;33.90;;;;;;5050826;28;20416;-61
2024/03/08 14:28:38;;;;;;;;;;;25.60;34.10;;;;;;5054159;28;20011;-61
2024/03/08 14:31:10;;;;;;;;;;;25.60;34.00;;;;;;5054276;28;19925;-61
2024/03/08 14:33:37;;;;;;;;;;;25.60;33.90;;;;;;5053792;28;20378;-61
2024/03/08 14:36:05;;;;;;;;;;;25.50;33.80;;;;;;5053764;28;19932;-61
2024/03/08 14:38:34;;;;;;;;;;;25.50;34.00;;;;;;5053694;28;20433;-61
2024/03/08 14:41:03;;;;;;;;;;;25.50;34.00;;;;;;5053542;28;19925;-62
2024/03/08 14:43:31;;;;;;;;;;;25.50;34.00;;;;;;5053763;28;19976;-61
2024/03/08 14:45:59;;;;;;;;;;;25.50;34.00;;;;;;5053829;28;20016;-61
2024/03/08 14:48:25;;;;;;;;;;;25.50;34.10;;;;;;5053803;28;19931;-61
2024/03/08 14:50:52;;;;;;;;;;;25.40;34.10;;;;;;5053501;28;19932;-61
2024/03/08 14:53:19;;;;;;;;;;;25.40;34.10;;;;;;5053719;28;19932;-61
2024/03/08 14:55:47;;;;;;;;;;;25.40;34.20;;;;;;5053803;28;19931;-61
2024/03/08 14:58:14;;;;;;;;;;;25.40;34.30;;;;;;5053621;28;19932;-61
2024/03/08 15:00:43;;;;;;;;;;;25.40;34.30;;;;;;5053403;28;20027;-61
2024/03/08 15:03:16;;;;;;;;;;;25.40;34.30;;;;;;5053807;28;19925;-61
2024/03/08 15:05:47;;;;;;;;;;;25.40;34.40;;;;;;5052160;28;20374;-61
2024/03/08 15:08:19;;;;;;;;;;;25.50;34.50;;;;;;5053654;28;19924;-61
2024/03/08 15:10:47;;;;;;;;;;;25.50;34.50;;;;;;5053500;28;20348;-61
2024/03/08 15:13:20;;;;;;;;;;;25.40;34.50;;;;;;5053519;28;20271;-61
2024/03/08 15:15:54;;;;;;;;;;;25.40;34.60;;;;;;5053140;28;19932;-61
2024/03/08 15:18:25;;;;;;;;;;;25.40;34.70;;;;;;5053528;28;20296;-61
2024/03/08 15:20:53;;;;;;;;;;;25.40;34.80;;;;;;5053611;28;19932;-62
2024/03/08 15:23:20;;;;;;;;;;;25.40;35.00;;;;;;5053575;28;19928;-61
2024/03/08 15:25:48;;;;;;;;;;;25.40;35.10;;;;;;5053380;28;19925;-61
2024/03/08 15:28:19;;;;;;;;;;;25.30;35.20;;;;;;5053199;28;19967;-61
2024/03/08 15:30:51;;;;;;;;;;;25.30;35.30;;;;;;5053055;28;19925;-62
2024/03/08 15:33:24;;;;;;;;;;;25.20;35.30;;;;;;5053430;28;19925;-62
2024/03/08 15:35:57;;;;;;;;;;;25.20;35.50;;;;;;5053426;28;20333;-61
2024/03/08 15:38:27;;;;;;;;;;;25.20;35.60;;;;;;5052924;28;19925;-61